Mr Farrel — WDF2273 — position and weather

sailwx.info

Track history (hours):
 
Tides and Currents Weather Stations Pressure Air Temp Water Temp Dewpoint Dewpoint Depression Visibility Wind Speed Wind Dir Waves Ship Positions

Mr Farrel

Owner: Crosby Marine Transportation LLC, Golden Meadow, LA. More information available from US FCC via Universal Licensing System and Coast Guard Vessel Documentation Center.

Last reported at 2017-Dec-09 18:07 UTC. Time now 2017-Dec-13 05:10 UTC.
Position N 29°29' W 094°52'.

; draft 3 m.

Type: Tug. MMSI: 367426830.

Date/timePositionNaut miles runAvg speedWind from/ knotsBaromVisibWave heightAir tempDewpointWater temp
2017-Dec-09 18:07N 29°29' W 094°52'1 7.0
2017-Dec-09 18:00N 29°30' W 094°52'3 6.3
2017-Dec-09 17:30N 29°32' W 094°54'3 6.3
2017-Dec-09 17:00N 29°35' W 094°56'3 6.2
2017-Dec-09 16:30N 29°37' W 094°58'3 6.1
2017-Dec-09 16:00N 29°40' W 094°59'3 5.3
2017-Dec-09 15:30N 29°42' W 095°01'3 5.7
2017-Dec-09 15:00N 29°44' W 095°03'3 5.8
2017-Dec-09 14:30N 29°47' W 095°04'0 0.6
2017-Dec-09 13:48N 29°47' W 095°05'1 4.4
2017-Dec-09 13:28N 29°46' W 095°05'1 1.6
2017-Dec-09 12:40N 29°47' W 095°06'0 0.0
2017-Dec-09 11:34N 29°47' W 095°06'0 0.0
2017-Dec-09 11:22N 29°47' W 095°06'0 0.0
2017-Dec-09 10:52N 29°47' W 095°06'0 0.0
2017-Dec-09 10:28N 29°47' W 095°06'0 0.0
2017-Dec-09 09:45N 29°47' W 095°06'0 0.0
2017-Dec-09 08:24N 29°47' W 095°06'0 0.0
2017-Dec-09 07:57N 29°47' W 095°06'0 0.0
2017-Dec-09 07:30N 29°47' W 095°06'0 0.0
2017-Dec-09 07:00N 29°47' W 095°06'0 0.0
2017-Dec-09 06:27N 29°47' W 095°06'0 0.0
2017-Dec-09 06:00N 29°47' W 095°06'0 0.0
2017-Dec-09 05:30N 29°47' W 095°06'0 0.0
2017-Dec-09 05:00N 29°47' W 095°06'0 0.0
2017-Dec-09 04:26N 29°47' W 095°06'0 0.0
2017-Dec-09 04:00N 29°47' W 095°06'0 0.0
2017-Dec-09 03:29N 29°47' W 095°06'0 0.0
2017-Dec-08 23:07N 29°47' W 095°06'0 0.0
2017-Dec-08 23:00N 29°47' W 095°06'0 0.0
2017-Dec-08 22:30N 29°47' W 095°06'2 0.3
2017-Dec-08 16:08N 29°47' W 095°04'0 0.3
2017-Dec-08 15:41N 29°48' W 095°04'2 1.6
2017-Dec-08 14:32N 29°46' W 095°05'0 6.1
2017-Dec-08 14:30N 29°46' W 095°05'2 0.1
2017-Dec-07 16:29N 29°48' W 095°04'0 0.0
2017-Dec-07 15:58N 29°48' W 095°04'0 0.0
2017-Dec-07 15:29N 29°48' W 095°04'0 0.0
2017-Dec-07 15:00N 29°48' W 095°04'0 0.0
2017-Dec-07 14:29N 29°48' W 095°04'0 0.0
2017-Dec-07 13:59N 29°48' W 095°04'0 0.0
2017-Dec-07 13:29N 29°48' W 095°04'0 0.0
2017-Dec-07 12:58N 29°48' W 095°04'0 0.0
2017-Dec-07 12:30N 29°48' W 095°04'0 0.0
2017-Dec-07 11:52N 29°48' W 095°04'0 0.0
2017-Dec-07 11:20N 29°48' W 095°04'0 0.0
2017-Dec-07 10:55N 29°48' W 095°04'0 0.0
2017-Dec-07 10:29N 29°48' W 095°04'0 0.0
2017-Dec-07 09:24N 29°48' W 095°04'0 0.0
2017-Dec-07 08:53N 29°48' W 095°04'0 0.0
2017-Dec-07 08:30N 29°48' W 095°04'0 0.0
2017-Dec-07 07:58N 29°48' W 095°04'0 0.0
2017-Dec-07 07:28N 29°48' W 095°04'1 1.4
2017-Dec-07 06:48N 29°47' W 095°04'1 3.7
2017-Dec-07 06:26N 29°46' W 095°05'2 5.7
2017-Dec-07 05:59N 29°44' W 095°08'3 5.8
2017-Dec-07 05:30N 29°45' W 095°11'3 5.4
2017-Dec-07 05:00N 29°44' W 095°14'1 2.2
2017-Dec-07 04:30N 29°43' W 095°15'0 0.0
2017-Dec-07 04:00N 29°43' W 095°15'0 0.0
2017-Dec-07 03:30N 29°43' W 095°15'0 0.0
2017-Dec-07 03:00N 29°43' W 095°15'0 0.0
2017-Dec-07 02:30N 29°43' W 095°15'0 0.0
2017-Dec-07 02:00N 29°43' W 095°15'0 0.0
2017-Dec-07 01:30N 29°43' W 095°15'0 0.0
2017-Dec-07 01:00N 29°43' W 095°15'0 0.0
2017-Dec-07 00:30N 29°43' W 095°15'0 0.0
2017-Dec-07 00:00N 29°43' W 095°15'0 0.0
2017-Dec-06 23:30N 29°43' W 095°15'0 0.0
2017-Dec-06 23:00N 29°43' W 095°15'0 0.0
2017-Dec-06 22:30N 29°43' W 095°15'0 0.0
2017-Dec-06 22:00N 29°43' W 095°15'0 0.0
2017-Dec-06 21:30N 29°43' W 095°15'0 0.0
2017-Dec-06 21:00N 29°43' W 095°15'  
2017-Dec-03 15:13N 29°40' W 094°15'0 0.1
2017-Dec-03 14:37N 29°39' W 094°15'0 0.1
2017-Dec-03 14:23N 29°39' W 094°15'4 4.9
2017-Dec-03 13:34N 29°41' W 094°11'2 3.5
2017-Dec-03 12:55N 29°42' W 094°08'1 1.6
2017-Dec-03 12:31N 29°43' W 094°08'0 0.0
2017-Dec-03 09:58N 29°43' W 094°08'0 0.0
2017-Dec-03 08:17N 29°43' W 094°08'40 1.0
2017-Dec-01 16:37N 29°29' W 094°52'1 8.2
2017-Dec-01 16:30N 29°30' W 094°52'4 8.0
2017-Dec-01 16:01N 29°33' W 094°55'4 7.7
2017-Dec-01 15:31N 29°36' W 094°57'4 7.8
2017-Dec-01 15:01N 29°40' W 094°59'4 7.5
2017-Dec-01 14:31N 29°43' W 095°01'4 7.2
2017-Dec-01 13:59N 29°46' W 095°04'1 0.0
2017-Nov-30 18:17N 29°46' W 095°05'1 0.3
2017-Nov-30 16:30N 29°45' W 095°06'1 0.9
2017-Nov-30 15:47N 29°46' W 095°05'1 2.1
2017-Nov-30 15:29N 29°46' W 095°06'1 0.3
2017-Nov-30 13:19N 29°47' W 095°06'0 0.0
2017-Nov-30 12:57N 29°47' W 095°06'0 0.0
2017-Nov-30 12:30N 29°47' W 095°06'0 0.0
2017-Nov-30 12:00N 29°47' W 095°06'0 0.0
2017-Nov-30 11:30N 29°47' W 095°06'0 0.0
2017-Nov-30 11:00N 29°47' W 095°06'0 0.0
2017-Nov-30 10:31N 29°47' W 095°06'0 0.0
2017-Nov-30 10:01N 29°47' W 095°06'0 0.0
2017-Nov-30 09:31N 29°47' W 095°06'0 0.0
2017-Nov-30 09:01N 29°47' W 095°06'0 0.0
2017-Nov-30 08:31N 29°47' W 095°06'0 0.2
2017-Nov-30 07:57N 29°47' W 095°06'1 2.4
2017-Nov-30 07:30N 29°46' W 095°05'2 3.9
2017-Nov-30 07:00N 29°47' W 095°04'0 0.1
2017-Nov-30 06:31N 29°47' W 095°04'0 0.1
2017-Nov-30 05:56N 29°47' W 095°04'2 4.4
2017-Nov-30 05:29N 29°46' W 095°05'3 5.5
2017-Nov-30 04:58N 29°44' W 095°08'3 5.5
2017-Nov-30 04:30N 29°45' W 095°11'3 5.2
2017-Nov-30 04:00N 29°43' W 095°13'1 2.3
2017-Nov-30 03:29N 29°43' W 095°14'0 0.0
2017-Nov-30 03:00N 29°43' W 095°14'0 0.0
2017-Nov-30 02:30N 29°43' W 095°14'0 0.0
2017-Nov-30 02:01N 29°43' W 095°14'0 0.0
2017-Nov-30 01:30N 29°43' W 095°14'0 0.0
2017-Nov-30 01:01N 29°43' W 095°14'0 0.0
2017-Nov-30 00:30N 29°43' W 095°14'0 0.0
2017-Nov-29 23:59N 29°43' W 095°14'0 0.0
2017-Nov-29 23:30N 29°43' W 095°14'0 0.0
2017-Nov-29 23:00N 29°43' W 095°14'0 0.0
2017-Nov-29 22:30N 29°43' W 095°14'0 0.0
2017-Nov-29 22:00N 29°43' W 095°14'0 0.0
2017-Nov-29 21:29N 29°43' W 095°14'0 0.0
2017-Nov-29 21:00N 29°43' W 095°14'0 0.0
2017-Nov-29 20:30N 29°43' W 095°14'0 0.0
2017-Nov-29 19:58N 29°43' W 095°14'0 0.0
2017-Nov-29 19:30N 29°43' W 095°14'0 0.0
2017-Nov-29 18:58N 29°43' W 095°14'0 0.0
2017-Nov-29 18:27N 29°43' W 095°14'  
Track history (hours):
 
Tides and Currents Weather Stations Pressure Air Temp Water Temp Dewpoint Dewpoint Depression Visibility Wind Speed Wind Dir Waves Ship Positions

Mr Farrel

Owner: Crosby Marine Transportation LLC, Golden Meadow, LA. More information available from US FCC via Universal Licensing System and Coast Guard Vessel Documentation Center.

Last reported at 2017-Dec-09 18:07 UTC. Time now 2017-Dec-13 05:10 UTC.
Position N 29°29' W 094°52'.

; draft 3 m.

Type: Tug. MMSI: 367426830.

Date/timePositionNaut miles runAvg speedWind from/ knotsBaromVisibWave heightAir tempDewpointWater temp
2017-Dec-09 18:07N 29°29' W 094°52'1 7.0
2017-Dec-09 18:00N 29°30' W 094°52'3 6.3
2017-Dec-09 17:30N 29°32' W 094°54'3 6.3
2017-Dec-09 17:00N 29°35' W 094°56'3 6.2
2017-Dec-09 16:30N 29°37' W 094°58'3 6.1
2017-Dec-09 16:00N 29°40' W 094°59'3 5.3
2017-Dec-09 15:30N 29°42' W 095°01'3 5.7
2017-Dec-09 15:00N 29°44' W 095°03'3 5.8
2017-Dec-09 14:30N 29°47' W 095°04'0 0.6
2017-Dec-09 13:48N 29°47' W 095°05'1 4.4
2017-Dec-09 13:28N 29°46' W 095°05'1 1.6
2017-Dec-09 12:40N 29°47' W 095°06'0 0.0
2017-Dec-09 11:34N 29°47' W 095°06'0 0.0
2017-Dec-09 11:22N 29°47' W 095°06'0 0.0
2017-Dec-09 10:52N 29°47' W 095°06'0 0.0
2017-Dec-09 10:28N 29°47' W 095°06'0 0.0
2017-Dec-09 09:45N 29°47' W 095°06'0 0.0
2017-Dec-09 08:24N 29°47' W 095°06'0 0.0
2017-Dec-09 07:57N 29°47' W 095°06'0 0.0
2017-Dec-09 07:30N 29°47' W 095°06'0 0.0
2017-Dec-09 07:00N 29°47' W 095°06'0 0.0
2017-Dec-09 06:27N 29°47' W 095°06'0 0.0
2017-Dec-09 06:00N 29°47' W 095°06'0 0.0
2017-Dec-09 05:30N 29°47' W 095°06'0 0.0
2017-Dec-09 05:00N 29°47' W 095°06'0 0.0
2017-Dec-09 04:26N 29°47' W 095°06'0 0.0
2017-Dec-09 04:00N 29°47' W 095°06'0 0.0
2017-Dec-09 03:29N 29°47' W 095°06'0 0.0
2017-Dec-08 23:07N 29°47' W 095°06'0 0.0
2017-Dec-08 23:00N 29°47' W 095°06'0 0.0
2017-Dec-08 22:30N 29°47' W 095°06'2 0.3
2017-Dec-08 16:08N 29°47' W 095°04'0 0.3
2017-Dec-08 15:41N 29°48' W 095°04'2 1.6
2017-Dec-08 14:32N 29°46' W 095°05'0 6.1
2017-Dec-08 14:30N 29°46' W 095°05'2 0.1
2017-Dec-07 16:29N 29°48' W 095°04'0 0.0
2017-Dec-07 15:58N 29°48' W 095°04'0 0.0
2017-Dec-07 15:29N 29°48' W 095°04'0 0.0
2017-Dec-07 15:00N 29°48' W 095°04'0 0.0
2017-Dec-07 14:29N 29°48' W 095°04'0 0.0
2017-Dec-07 13:59N 29°48' W 095°04'0 0.0
2017-Dec-07 13:29N 29°48' W 095°04'0 0.0
2017-Dec-07 12:58N 29°48' W 095°04'0 0.0
2017-Dec-07 12:30N 29°48' W 095°04'0 0.0
2017-Dec-07 11:52N 29°48' W 095°04'0 0.0
2017-Dec-07 11:20N 29°48' W 095°04'0 0.0
2017-Dec-07 10:55N 29°48' W 095°04'0 0.0
2017-Dec-07 10:29N 29°48' W 095°04'0 0.0
2017-Dec-07 09:24N 29°48' W 095°04'0 0.0
2017-Dec-07 08:53N 29°48' W 095°04'0 0.0
2017-Dec-07 08:30N 29°48' W 095°04'0 0.0
2017-Dec-07 07:58N 29°48' W 095°04'0 0.0
2017-Dec-07 07:28N 29°48' W 095°04'1 1.4
2017-Dec-07 06:48N 29°47' W 095°04'1 3.7
2017-Dec-07 06:26N 29°46' W 095°05'2 5.7
2017-Dec-07 05:59N 29°44' W 095°08'3 5.8
2017-Dec-07 05:30N 29°45' W 095°11'3 5.4
2017-Dec-07 05:00N 29°44' W 095°14'1 2.2
2017-Dec-07 04:30N 29°43' W 095°15'0 0.0
2017-Dec-07 04:00N 29°43' W 095°15'0 0.0
2017-Dec-07 03:30N 29°43' W 095°15'0 0.0
2017-Dec-07 03:00N 29°43' W 095°15'0 0.0
2017-Dec-07 02:30N 29°43' W 095°15'0 0.0
2017-Dec-07 02:00N 29°43' W 095°15'0 0.0
2017-Dec-07 01:30N 29°43' W 095°15'0 0.0
2017-Dec-07 01:00N 29°43' W 095°15'0 0.0
2017-Dec-07 00:30N 29°43' W 095°15'0 0.0
2017-Dec-07 00:00N 29°43' W 095°15'0 0.0
2017-Dec-06 23:30N 29°43' W 095°15'0 0.0
2017-Dec-06 23:00N 29°43' W 095°15'0 0.0
2017-Dec-06 22:30N 29°43' W 095°15'0 0.0
2017-Dec-06 22:00N 29°43' W 095°15'0 0.0
2017-Dec-06 21:30N 29°43' W 095°15'0 0.0
2017-Dec-06 21:00N 29°43' W 095°15'  
2017-Dec-03 15:13N 29°40' W 094°15'0 0.1
2017-Dec-03 14:37N 29°39' W 094°15'0 0.1
2017-Dec-03 14:23N 29°39' W 094°15'4 4.9
2017-Dec-03 13:34N 29°41' W 094°11'2 3.5
2017-Dec-03 12:55N 29°42' W 094°08'1 1.6
2017-Dec-03 12:31N 29°43' W 094°08'0 0.0
2017-Dec-03 09:58N 29°43' W 094°08'0 0.0
2017-Dec-03 08:17N 29°43' W 094°08'40 1.0
2017-Dec-01 16:37N 29°29' W 094°52'1 8.2
2017-Dec-01 16:30N 29°30' W 094°52'4 8.0
2017-Dec-01 16:01N 29°33' W 094°55'4 7.7
2017-Dec-01 15:31N 29°36' W 094°57'4 7.8
2017-Dec-01 15:01N 29°40' W 094°59'4 7.5
2017-Dec-01 14:31N 29°43' W 095°01'4 7.2
2017-Dec-01 13:59N 29°46' W 095°04'1 0.0
2017-Nov-30 18:17N 29°46' W 095°05'1 0.3
2017-Nov-30 16:30N 29°45' W 095°06'1 0.9
2017-Nov-30 15:47N 29°46' W 095°05'1 2.1
2017-Nov-30 15:29N 29°46' W 095°06'1 0.3
2017-Nov-30 13:19N 29°47' W 095°06'0 0.0
2017-Nov-30 12:57N 29°47' W 095°06'0 0.0
2017-Nov-30 12:30N 29°47' W 095°06'0 0.0
2017-Nov-30 12:00N 29°47' W 095°06'0 0.0
2017-Nov-30 11:30N 29°47' W 095°06'0 0.0
2017-Nov-30 11:00N 29°47' W 095°06'0 0.0
2017-Nov-30 10:31N 29°47' W 095°06'0 0.0
2017-Nov-30 10:01N 29°47' W 095°06'0 0.0
2017-Nov-30 09:31N 29°47' W 095°06'0 0.0
2017-Nov-30 09:01N 29°47' W 095°06'0 0.0
2017-Nov-30 08:31N 29°47' W 095°06'0 0.2
2017-Nov-30 07:57N 29°47' W 095°06'1 2.4
2017-Nov-30 07:30N 29°46' W 095°05'2 3.9
2017-Nov-30 07:00N 29°47' W 095°04'0 0.1
2017-Nov-30 06:31N 29°47' W 095°04'0 0.1
2017-Nov-30 05:56N 29°47' W 095°04'2 4.4
2017-Nov-30 05:29N 29°46' W 095°05'3 5.5
2017-Nov-30 04:58N 29°44' W 095°08'3 5.5
2017-Nov-30 04:30N 29°45' W 095°11'3 5.2
2017-Nov-30 04:00N 29°43' W 095°13'1 2.3
2017-Nov-30 03:29N 29°43' W 095°14'0 0.0
2017-Nov-30 03:00N 29°43' W 095°14'0 0.0
2017-Nov-30 02:30N 29°43' W 095°14'0 0.0
2017-Nov-30 02:01N 29°43' W 095°14'0 0.0
2017-Nov-30 01:30N 29°43' W 095°14'0 0.0
2017-Nov-30 01:01N 29°43' W 095°14'0 0.0
2017-Nov-30 00:30N 29°43' W 095°14'0 0.0
2017-Nov-29 23:59N 29°43' W 095°14'0 0.0
2017-Nov-29 23:30N 29°43' W 095°14'0 0.0
2017-Nov-29 23:00N 29°43' W 095°14'0 0.0
2017-Nov-29 22:30N 29°43' W 095°14'0 0.0
2017-Nov-29 22:00N 29°43' W 095°14'0 0.0
2017-Nov-29 21:29N 29°43' W 095°14'0 0.0
2017-Nov-29 21:00N 29°43' W 095°14'0 0.0
2017-Nov-29 20:30N 29°43' W 095°14'0 0.0
2017-Nov-29 19:58N 29°43' W 095°14'0 0.0
2017-Nov-29 19:30N 29°43' W 095°14'0 0.0
2017-Nov-29 18:58N 29°43' W 095°14'0 0.0
2017-Nov-29 18:27N 29°43' W 095°14'  

Dump ship's entire track history